createdAt,value
2023-07-27T00:02:10.894Z,2.65
2023-07-27T00:04:37.780Z,3.28
2023-07-27T00:07:05.372Z,2.72
2023-07-27T00:09:32.381Z,2.47
2023-07-27T00:11:59.396Z,2.25
2023-07-27T00:14:26.641Z,2.58
2023-07-27T00:16:53.653Z,2.65
2023-07-27T00:19:21.590Z,2.50
2023-07-27T00:21:48.500Z,2.40
2023-07-27T00:24:15.458Z,3.03
2023-07-27T00:26:43.796Z,2.25
2023-07-27T00:29:10.867Z,2.10
2023-07-27T00:31:37.941Z,2.13
2023-07-27T00:34:04.890Z,1.73
2023-07-27T00:36:32.156Z,1.65
2023-07-27T00:39:00.512Z,1.77
2023-07-27T00:41:27.666Z,2.13
2023-07-27T00:43:54.687Z,2.40
2023-07-27T00:46:22.253Z,1.20
2023-07-27T00:48:49.795Z,1.63
2023-07-27T00:51:16.905Z,1.65
2023-07-27T00:53:44.255Z,1.25
2023-07-27T00:56:11.600Z,1.40
2023-07-27T00:58:39.668Z,1.58
2023-07-27T01:01:08.119Z,1.25
2023-07-27T01:03:35.245Z,1.80
2023-07-27T01:06:03.154Z,1.60
2023-07-27T01:08:31.325Z,1.50
2023-07-27T01:11:12.066Z,1.75
2023-07-27T01:13:46.126Z,1.60
2023-07-27T01:16:20.578Z,1.65
2023-07-27T01:19:10.365Z,1.42
2023-07-27T01:21:46.651Z,1.70
2023-07-27T01:24:38.768Z,2.25
2023-07-27T01:27:34.888Z,2.05
2023-07-27T01:30:39.875Z,2.00
2023-07-27T01:33:11.686Z,2.20
2023-07-27T01:36:07.712Z,1.95
2023-07-27T01:38:37.633Z,2.30
2023-07-27T01:41:08.013Z,2.03
2023-07-27T01:43:37.144Z,2.00
2023-07-27T01:46:07.432Z,1.90
2023-07-27T01:48:35.924Z,2.35
2023-07-27T01:51:04.313Z,1.92
2023-07-27T01:53:32.517Z,1.92
2023-07-27T01:56:00.777Z,2.53
2023-07-27T01:58:28.889Z,2.50
2023-07-27T02:00:56.998Z,2.67
2023-07-27T02:03:24.539Z,1.90
2023-07-27T02:05:51.403Z,2.50
2023-07-27T02:08:18.487Z,2.33
2023-07-27T02:10:52.514Z,3.17
2023-07-27T02:13:37.216Z,3.17
2023-07-27T02:16:13.396Z,3.33
2023-07-27T02:18:42.266Z,4.22
2023-07-27T02:21:10.314Z,4.65
2023-07-27T02:23:37.571Z,3.78
2023-07-27T02:26:04.607Z,4.80
2023-07-27T02:28:31.647Z,4.65
2023-07-27T02:30:58.953Z,4.43
2023-07-27T02:33:26.442Z,4.13
2023-07-27T02:35:54.441Z,4.57
2023-07-27T02:38:21.505Z,4.68
2023-07-27T02:40:48.550Z,5.00
2023-07-27T02:43:15.768Z,4.78
2023-07-27T02:45:42.733Z,5.65
2023-07-27T02:48:09.755Z,5.13
2023-07-27T02:50:36.606Z,5.82
2023-07-27T02:53:07.996Z,6.15
2023-07-27T02:55:38.019Z,6.38
2023-07-27T02:58:04.917Z,6.28
2023-07-27T03:00:35.857Z,6.25
2023-07-27T03:03:04.530Z,6.55
2023-07-27T03:05:32.295Z,6.68
2023-07-27T03:07:59.407Z,6.20
2023-07-27T03:10:36.018Z,6.82
2023-07-27T03:13:05.920Z,6.38
2023-07-27T03:15:32.941Z,6.20
2023-07-27T03:17:59.884Z,5.60
2023-07-27T03:20:26.931Z,5.53
2023-07-27T03:22:53.803Z,6.15
2023-07-27T03:25:20.819Z,5.95
2023-07-27T03:27:47.944Z,5.22
2023-07-27T03:30:15.019Z,3.97
2023-07-27T03:32:42.044Z,3.85
2023-07-27T03:35:09.254Z,4.43
2023-07-27T03:37:36.186Z,3.95
2023-07-27T03:40:03.629Z,3.90
2023-07-27T03:42:30.563Z,5.53
2023-07-27T03:44:57.551Z,4.18
2023-07-27T03:47:24.789Z,4.82
2023-07-27T03:49:51.969Z,3.70
2023-07-27T03:52:19.010Z,4.10
2023-07-27T03:54:46.542Z,2.95
2023-07-27T03:57:13.830Z,2.88
2023-07-27T03:59:41.151Z,3.65
2023-07-27T04:02:08.633Z,3.00
2023-07-27T04:04:35.790Z,2.92
2023-07-27T04:07:02.885Z,3.10
2023-07-27T04:09:30.071Z,3.78
2023-07-27T04:11:57.203Z,3.17
2023-07-27T04:14:24.444Z,2.95
2023-07-27T04:16:51.350Z,3.42
2023-07-27T04:19:18.575Z,3.15
2023-07-27T04:21:45.409Z,2.72
2023-07-27T04:24:12.499Z,3.05
2023-07-27T04:26:39.334Z,2.88
2023-07-27T04:29:06.234Z,3.20
2023-07-27T04:31:33.039Z,3.33
2023-07-27T04:34:00.025Z,2.78
2023-07-27T04:36:28.655Z,2.78
2023-07-27T04:38:55.611Z,2.75
2023-07-27T04:41:22.542Z,2.05
2023-07-27T04:43:49.615Z,2.08
2023-07-27T04:46:16.747Z,2.53
2023-07-27T04:48:44.068Z,2.60
2023-07-27T04:51:11.040Z,2.45
2023-07-27T04:53:37.967Z,2.55
2023-07-27T04:56:05.157Z,2.30
2023-07-27T04:58:31.986Z,2.53
2023-07-27T05:00:59.351Z,2.78
2023-07-27T05:03:26.100Z,2.58
2023-07-27T05:05:54.620Z,2.50
2023-07-27T05:08:21.602Z,3.05
2023-07-27T05:10:48.836Z,2.42
2023-07-27T05:13:15.822Z,3.17
2023-07-27T05:15:43.230Z,3.22
2023-07-27T05:18:10.395Z,2.50
2023-07-27T05:20:37.490Z,2.60
2023-07-27T05:23:04.684Z,2.22
2023-07-27T05:25:31.930Z,2.50
2023-07-27T05:27:58.947Z,3.33
2023-07-27T05:30:26.455Z,3.58
2023-07-27T05:32:53.465Z,3.33
2023-07-27T05:35:20.337Z,4.00
2023-07-27T05:37:48.012Z,3.35
2023-07-27T05:40:18.026Z,3.90
2023-07-27T05:42:45.064Z,3.67
2023-07-27T05:45:12.267Z,3.70
2023-07-27T05:47:39.614Z,4.00
2023-07-27T05:50:07.737Z,3.60
2023-07-27T05:52:34.878Z,4.07
2023-07-27T05:55:01.795Z,4.53
2023-07-27T05:57:28.971Z,4.95
2023-07-27T06:00:04.287Z,4.28
2023-07-27T06:02:33.183Z,5.00
2023-07-27T06:05:00.571Z,4.45
2023-07-27T06:07:27.547Z,4.72
2023-07-27T06:09:54.922Z,4.88
2023-07-27T06:12:21.822Z,4.78
2023-07-27T06:14:48.950Z,5.50
2023-07-27T06:17:16.028Z,5.22
2023-07-27T06:19:42.789Z,5.10
2023-07-27T06:22:09.819Z,5.57
2023-07-27T06:24:36.744Z,4.38
2023-07-27T06:27:03.995Z,5.28
2023-07-27T06:29:31.919Z,4.97
2023-07-27T06:31:58.821Z,5.03
2023-07-27T06:34:26.805Z,5.60
2023-07-27T06:36:53.842Z,4.47
2023-07-27T06:39:20.846Z,4.43
2023-07-27T06:41:47.714Z,4.55
2023-07-27T06:44:14.642Z,4.72
2023-07-27T06:46:41.683Z,4.68
2023-07-27T06:49:08.992Z,3.85
2023-07-27T06:51:36.385Z,2.47
2023-07-27T06:54:03.342Z,1.90
2023-07-27T06:56:30.279Z,1.48
2023-07-27T06:58:57.233Z,1.02
2023-07-27T07:01:24.312Z,0.63
2023-07-27T07:03:51.348Z,0.80
2023-07-27T07:06:18.251Z,0.43
2023-07-27T07:08:45.250Z,0.40
2023-07-27T07:11:12.296Z,0.70
2023-07-27T07:13:39.428Z,0.80
2023-07-27T07:16:07.073Z,0.70
2023-07-27T07:18:34.345Z,0.70
2023-07-27T07:21:01.855Z,0.73
2023-07-27T07:23:28.910Z,0.68
2023-07-27T07:25:56.289Z,0.40
2023-07-27T07:28:24.682Z,0.70
2023-07-27T07:30:52.380Z,0.85
2023-07-27T07:33:19.706Z,0.40
2023-07-27T07:35:46.682Z,0.30
2023-07-27T07:38:13.593Z,0.30
2023-07-27T07:40:40.495Z,0.52
2023-07-27T07:43:07.849Z,0.40
2023-07-27T07:45:35.886Z,0.28
2023-07-27T07:48:03.278Z,0.70
2023-07-27T07:50:30.741Z,0.28
2023-07-27T07:52:57.653Z,0.85
2023-07-27T07:55:24.886Z,0.38
2023-07-27T07:57:51.970Z,0.70
2023-07-27T08:00:19.097Z,0.20
2023-07-27T08:02:46.199Z,0.40
2023-07-27T08:05:13.318Z,0.50
2023-07-27T08:07:40.265Z,0.30
2023-07-27T08:10:07.963Z,0.90
2023-07-27T08:12:36.257Z,0.40
2023-07-27T08:15:03.523Z,0.40
2023-07-27T08:17:31.084Z,0.40
2023-07-27T08:19:58.036Z,0.40
2023-07-27T08:22:26.507Z,0.30
2023-07-27T08:24:58.056Z,0.98
2023-07-27T08:27:35.879Z,0.40
2023-07-27T08:30:04.077Z,0.28
2023-07-27T08:32:31.195Z,0.32
2023-07-27T08:34:58.133Z,0.45
2023-07-27T08:37:26.501Z,0.40
2023-07-27T08:39:53.809Z,0.65
2023-07-27T08:42:21.299Z,0.75
2023-07-27T08:44:49.186Z,0.70
2023-07-27T08:47:16.513Z,0.52
2023-07-27T08:49:45.812Z,0.73
2023-07-27T08:52:14.000Z,0.80
2023-07-27T08:54:41.015Z,0.95
2023-07-27T08:57:09.508Z,1.45
2023-07-27T08:59:36.692Z,1.10
2023-07-27T09:02:04.109Z,1.00
2023-07-27T09:04:31.141Z,0.70
2023-07-27T09:07:08.116Z,0.93
2023-07-27T09:09:37.030Z,1.02
2023-07-27T09:12:08.522Z,1.05
2023-07-27T09:14:39.828Z,0.95
2023-07-27T09:17:08.646Z,1.20
2023-07-27T09:19:39.598Z,0.90
2023-07-27T09:22:06.898Z,1.23
2023-07-27T09:24:35.993Z,1.33
2023-07-27T09:27:09.863Z,0.60
2023-07-27T09:29:37.450Z,0.75
2023-07-27T09:32:06.839Z,1.20
2023-07-27T09:34:34.226Z,1.10
2023-07-27T09:37:05.563Z,0.80
2023-07-27T09:39:36.981Z,0.63
2023-07-27T09:42:08.810Z,0.50
2023-07-27T09:44:49.124Z,0.88
2023-07-27T09:47:21.851Z,0.60
2023-07-27T09:49:54.169Z,0.80
2023-07-27T09:52:22.433Z,1.08
2023-07-27T09:54:50.191Z,0.60
2023-07-27T09:57:17.384Z,0.65
2023-07-27T09:59:45.534Z,0.90
2023-07-27T10:02:14.734Z,0.50
2023-07-27T10:04:44.440Z,0.63
2023-07-27T10:07:12.095Z,0.90
2023-07-27T10:09:39.887Z,0.50
2023-07-27T10:12:10.017Z,0.70
2023-07-27T10:14:39.857Z,1.08
2023-07-27T10:17:09.424Z,1.35
2023-07-27T10:19:42.094Z,0.88
2023-07-27T10:22:19.328Z,1.35
2023-07-27T10:24:52.004Z,0.88
2023-07-27T10:27:23.313Z,1.10
2023-07-27T10:29:55.243Z,1.48
2023-07-27T10:32:23.030Z,0.82
2023-07-27T10:34:53.235Z,1.30
2023-07-27T10:37:20.579Z,1.10
2023-07-27T10:39:51.138Z,1.00
2023-07-27T10:42:21.518Z,0.90
2023-07-27T10:44:51.444Z,0.93
2023-07-27T10:47:21.956Z,1.00
2023-07-27T10:49:50.200Z,1.42
2023-07-27T10:52:17.432Z,1.33
2023-07-27T10:54:45.349Z,1.00
2023-07-27T10:57:14.211Z,1.20
2023-07-27T10:59:43.497Z,1.20
2023-07-27T11:02:18.963Z,1.08
2023-07-27T11:04:46.508Z,0.75
2023-07-27T11:07:13.996Z,0.82
2023-07-27T11:09:46.616Z,0.80
2023-07-27T11:12:13.634Z,1.20
2023-07-27T11:14:40.721Z,1.15
2023-07-27T11:17:08.711Z,1.13
2023-07-27T11:19:36.301Z,1.20
2023-07-27T11:22:03.598Z,1.55
2023-07-27T11:24:31.846Z,1.20
2023-07-27T11:26:59.455Z,1.10
2023-07-27T11:29:26.463Z,1.27
2023-07-27T11:32:02.067Z,1.20
2023-07-27T11:34:30.600Z,1.58
2023-07-27T11:37:00.289Z,1.90
2023-07-27T11:39:27.955Z,1.83
2023-07-27T11:41:55.637Z,1.98
2023-07-27T11:44:24.101Z,1.80
2023-07-27T11:46:54.618Z,1.80
2023-07-27T11:49:23.823Z,1.92
2023-07-27T11:51:50.832Z,1.60
2023-07-27T11:54:24.542Z,2.35
2023-07-27T11:56:56.905Z,2.33
2023-07-27T11:59:24.220Z,2.00
2023-07-27T12:01:52.739Z,2.70
2023-07-27T12:04:21.113Z,2.10
2023-07-27T12:06:49.161Z,2.00
2023-07-27T12:09:16.413Z,2.35
2023-07-27T12:11:45.700Z,2.25
2023-07-27T12:14:12.706Z,1.90
2023-07-27T12:21:48.673Z,2.03
2023-07-27T12:34:19.262Z,2.80
2023-07-27T12:39:17.389Z,2.30
2023-07-27T12:42:23.555Z,2.17
2023-07-27T12:44:31.642Z,2.13
2023-07-27T12:46:58.699Z,2.55
2023-07-27T12:49:25.888Z,2.17
2023-07-27T12:51:53.231Z,1.75
2023-07-27T12:54:21.089Z,2.42
2023-07-27T12:56:48.216Z,2.03
2023-07-27T12:59:15.466Z,1.95
2023-07-27T13:01:42.431Z,3.22
2023-07-27T13:04:09.802Z,1.95
2023-07-27T13:06:36.957Z,2.65
2023-07-27T13:09:04.489Z,2.20
2023-07-27T13:11:32.984Z,2.75
2023-07-27T13:14:01.491Z,2.28
2023-07-27T13:16:28.350Z,2.80
2023-07-27T13:18:55.512Z,2.35
2023-07-27T13:21:22.603Z,2.20
2023-07-27T13:23:49.679Z,2.85
2023-07-27T13:26:16.732Z,1.95
2023-07-27T13:28:43.723Z,1.85
2023-07-27T13:31:14.001Z,2.00
2023-07-27T13:33:41.266Z,2.17
2023-07-27T13:36:08.191Z,1.58
2023-07-27T13:38:35.370Z,2.20
2023-07-27T13:41:02.457Z,1.80
2023-07-27T13:43:30.614Z,1.52
2023-07-27T13:45:57.639Z,1.70
2023-07-27T13:48:24.872Z,1.92
2023-07-27T13:50:52.738Z,1.35
2023-07-27T13:53:21.301Z,1.30
2023-07-27T13:55:51.156Z,1.50
2023-07-27T13:58:20.556Z,1.58
2023-07-27T14:00:47.812Z,1.73
2023-07-27T14:03:15.673Z,1.67
2023-07-27T14:05:42.884Z,2.00
2023-07-27T14:08:10.239Z,1.73
2023-07-27T14:10:37.253Z,2.28
2023-07-27T14:13:04.303Z,1.95
2023-07-27T14:15:31.606Z,1.70
2023-07-27T14:18:01.575Z,1.75
2023-07-27T14:20:28.898Z,1.70
2023-07-27T14:22:55.975Z,1.73
2023-07-27T14:25:23.371Z,1.63
2023-07-27T14:27:58.813Z,2.05
2023-07-27T14:30:26.545Z,1.52
2023-07-27T14:32:53.551Z,1.88
2023-07-27T14:35:24.266Z,2.05
2023-07-27T14:37:53.298Z,1.60
2023-07-27T14:42:50.535Z,1.52
2023-07-27T14:45:17.633Z,2.28
2023-07-27T14:47:44.769Z,2.20
2023-07-27T14:50:12.704Z,2.20
2023-07-27T14:52:40.244Z,2.03
2023-07-27T14:55:08.975Z,2.15
2023-07-27T14:57:36.281Z,1.95
2023-07-27T15:00:08.990Z,1.90
2023-07-27T15:02:45.303Z,1.98
2023-07-27T15:05:13.710Z,1.98
2023-07-27T15:07:41.260Z,1.88
2023-07-27T15:10:24.845Z,2.25
2023-07-27T15:12:55.707Z,1.95
2023-07-27T15:15:22.708Z,1.50
2023-07-27T15:17:49.978Z,1.90
2023-07-27T15:20:17.092Z,2.30
2023-07-27T15:22:44.267Z,1.77
2023-07-27T15:25:11.375Z,1.83
2023-07-27T15:27:38.438Z,1.90
2023-07-27T15:30:06.466Z,1.95
2023-07-27T15:32:34.074Z,1.85
2023-07-27T15:35:01.117Z,1.95
2023-07-27T15:37:27.858Z,2.42
2023-07-27T15:39:54.753Z,2.30
2023-07-27T15:42:23.339Z,2.45
2023-07-27T15:44:50.545Z,1.50
2023-07-27T15:47:17.948Z,2.30
2023-07-27T15:49:44.786Z,2.70
2023-07-27T15:52:11.974Z,1.92
2023-07-27T15:54:38.970Z,2.15
2023-07-27T15:57:06.440Z,1.73
2023-07-27T15:59:33.747Z,1.70
2023-07-27T16:02:00.595Z,2.22
2023-07-27T16:04:27.659Z,2.05
2023-07-27T16:06:57.284Z,1.85
2023-07-27T16:09:24.382Z,2.22
2023-07-27T16:11:51.379Z,1.52
2023-07-27T16:14:19.007Z,1.75
2023-07-27T16:16:46.852Z,3.03
2023-07-27T16:19:14.041Z,2.15
2023-07-27T16:21:41.545Z,2.00
2023-07-27T16:24:08.710Z,3.10
2023-07-27T16:26:36.206Z,2.72
2023-07-27T16:29:04.359Z,2.47
2023-07-27T16:31:31.513Z,2.80
2023-07-27T16:33:58.821Z,2.53
2023-07-27T16:36:25.715Z,1.83
2023-07-27T16:38:52.591Z,2.28
2023-07-27T16:41:19.552Z,2.42
2023-07-27T16:43:49.258Z,2.03
2023-07-27T16:46:16.314Z,2.70
2023-07-27T16:48:50.548Z,2.03
2023-07-27T16:51:18.082Z,1.70
2023-07-27T16:53:44.950Z,2.15
2023-07-27T16:56:12.286Z,2.42
2023-07-27T16:58:39.383Z,1.88
2023-07-27T17:01:16.270Z,1.95
2023-07-27T17:03:43.602Z,2.10
2023-07-27T17:06:18.376Z,2.50
2023-07-27T17:08:45.787Z,2.70
2023-07-27T17:11:12.907Z,2.17
2023-07-27T17:13:40.194Z,2.20
2023-07-27T17:16:12.901Z,2.15
2023-07-27T17:18:41.781Z,2.08
2023-07-27T17:21:09.867Z,2.13
2023-07-27T17:23:38.384Z,2.22
2023-07-27T17:26:07.105Z,2.42
2023-07-27T17:28:34.465Z,2.58
2023-07-27T17:31:03.726Z,2.33
2023-07-27T17:33:31.168Z,2.58
2023-07-27T17:36:03.597Z,2.38
2023-07-27T17:38:34.520Z,2.28
2023-07-27T17:41:04.838Z,1.52
2023-07-27T17:43:32.386Z,1.90
2023-07-27T17:45:59.940Z,2.38
2023-07-27T17:48:30.195Z,2.60
2023-07-27T17:50:58.488Z,2.53
2023-07-27T17:53:26.297Z,1.70
2023-07-27T17:55:54.749Z,2.28
2023-07-27T17:58:21.726Z,2.05
2023-07-27T18:00:49.018Z,2.53
2023-07-27T18:03:16.069Z,2.03
2023-07-27T18:05:43.906Z,2.70
2023-07-27T18:08:10.826Z,2.30
2023-07-27T18:10:38.354Z,2.22
2023-07-27T18:13:06.236Z,1.85
2023-07-27T18:15:34.503Z,1.75
2023-07-27T18:18:01.401Z,1.95
2023-07-27T18:20:28.311Z,1.88
2023-07-27T18:22:57.873Z,2.20
2023-07-27T18:25:24.852Z,2.58
2023-07-27T18:27:52.054Z,2.13
2023-07-27T18:30:19.550Z,1.75
2023-07-27T18:32:46.617Z,2.15
2023-07-27T18:35:16.079Z,2.30
2023-07-27T18:37:44.117Z,1.77
2023-07-27T18:40:12.395Z,2.20
2023-07-27T18:42:39.766Z,1.80
2023-07-27T18:45:14.333Z,2.30
2023-07-27T18:47:41.379Z,3.10
2023-07-27T18:50:10.574Z,1.75
2023-07-27T18:52:37.620Z,1.98
2023-07-27T18:55:06.211Z,1.80
2023-07-27T18:57:33.085Z,1.60
2023-07-27T19:00:00.603Z,1.75
2023-07-27T19:02:27.864Z,1.73
2023-07-27T19:04:54.800Z,3.05
2023-07-27T19:07:22.557Z,1.65
2023-07-27T19:09:50.791Z,2.22
2023-07-27T19:12:17.779Z,1.55
2023-07-27T19:14:44.821Z,1.80
2023-07-27T19:17:11.852Z,1.45
2023-07-27T19:19:38.717Z,2.08
2023-07-27T19:22:06.331Z,2.20
2023-07-27T19:24:35.265Z,1.77
2023-07-27T19:27:02.257Z,2.38
2023-07-27T19:29:29.270Z,1.33
2023-07-27T19:31:56.289Z,1.88
2023-07-27T19:34:23.624Z,1.77
2023-07-27T19:36:50.571Z,1.70
2023-07-27T19:39:17.525Z,1.90
2023-07-27T19:41:45.465Z,1.92
2023-07-27T19:44:12.474Z,2.15
2023-07-27T19:46:39.595Z,2.08
2023-07-27T19:49:06.489Z,1.80
2023-07-27T19:51:33.732Z,1.95
2023-07-27T19:54:00.827Z,1.63
2023-07-27T19:56:27.741Z,1.88
2023-07-27T19:58:54.738Z,2.50
2023-07-27T20:01:21.722Z,1.70
2023-07-27T20:03:49.403Z,1.90
2023-07-27T20:06:17.617Z,2.70
2023-07-27T20:08:48.901Z,2.35
2023-07-27T20:11:17.267Z,2.03
2023-07-27T20:13:46.725Z,2.20
2023-07-27T20:16:14.232Z,2.10
2023-07-27T20:18:44.295Z,1.75
2023-07-27T20:21:11.662Z,1.52
2023-07-27T20:23:42.210Z,1.80
2023-07-27T20:26:09.344Z,2.08
2023-07-27T20:28:36.552Z,2.17
2023-07-27T20:31:07.344Z,1.60
2023-07-27T20:33:34.387Z,1.88
2023-07-27T20:36:01.389Z,2.42
2023-07-27T20:38:28.347Z,1.90
2023-07-27T20:40:55.377Z,1.55
2023-07-27T20:43:22.394Z,2.05
2023-07-27T20:45:59.175Z,1.90
2023-07-27T20:48:26.493Z,3.03
2023-07-27T20:50:53.649Z,1.75
2023-07-27T20:53:20.605Z,2.38
2023-07-27T20:55:47.798Z,1.75
2023-07-27T20:58:14.910Z,2.17
2023-07-27T21:00:42.116Z,2.38
2023-07-27T21:03:09.169Z,2.70
2023-07-27T21:05:39.841Z,2.15
2023-07-27T21:08:07.886Z,2.50
2023-07-27T21:10:34.777Z,1.75
2023-07-27T21:13:02.112Z,2.30
2023-07-27T21:15:29.349Z,1.83
2023-07-27T21:17:56.557Z,1.65
2023-07-27T21:20:23.641Z,1.90
2023-07-27T21:22:52.225Z,2.42
2023-07-27T21:25:21.306Z,1.50
2023-07-27T21:27:48.637Z,2.15
2023-07-27T21:30:15.783Z,1.50
2023-07-27T21:32:42.793Z,1.48
2023-07-27T21:35:09.958Z,1.60
2023-07-27T21:37:37.063Z,2.20
2023-07-27T21:40:13.662Z,1.70
2023-07-27T21:42:41.145Z,1.67
2023-07-27T21:45:08.235Z,2.00
2023-07-27T21:47:35.926Z,1.42
2023-07-27T21:50:05.375Z,2.30
2023-07-27T21:52:34.301Z,2.22
2023-07-27T21:55:01.597Z,2.22
2023-07-27T21:57:28.803Z,2.30
2023-07-27T21:59:55.976Z,2.10
2023-07-27T22:02:22.848Z,1.98
2023-07-27T22:04:49.901Z,1.63
2023-07-27T22:07:17.098Z,2.03
2023-07-27T22:09:45.010Z,1.50
2023-07-27T22:12:12.079Z,2.30
2023-07-27T22:14:39.642Z,2.40
2023-07-27T22:17:06.853Z,1.63
2023-07-27T22:19:33.941Z,2.55
2023-07-27T22:22:01.120Z,1.80
2023-07-27T22:24:31.430Z,2.13
2023-07-27T22:31:17.388Z,1.90
2023-07-27T22:33:44.440Z,1.88
2023-07-27T22:36:11.637Z,1.73
2023-07-27T22:38:38.531Z,1.55
2023-07-27T22:41:05.612Z,2.42
2023-07-27T22:43:32.586Z,2.05
2023-07-27T22:45:59.630Z,1.50
2023-07-27T22:48:26.584Z,2.17
2023-07-27T22:50:53.785Z,1.92
2023-07-27T22:53:20.860Z,2.85
2023-07-27T22:55:49.562Z,2.60
2023-07-27T22:58:17.315Z,2.13
2023-07-27T23:00:44.807Z,1.63
2023-07-27T23:03:11.834Z,3.13
2023-07-27T23:05:40.433Z,1.88
2023-07-27T23:08:08.899Z,1.80
2023-07-27T23:10:36.618Z,1.65
2023-07-27T23:13:03.633Z,2.35
2023-07-27T23:15:30.749Z,1.55
2023-07-27T23:17:57.818Z,1.90
2023-07-27T23:20:25.152Z,1.90
2023-07-27T23:22:52.294Z,1.60
2023-07-27T23:25:19.189Z,1.38
2023-07-27T23:27:46.081Z,1.52
2023-07-27T23:30:12.984Z,1.73
2023-07-27T23:32:40.090Z,1.83
2023-07-27T23:35:07.838Z,2.63
2023-07-27T23:37:34.830Z,2.40
2023-07-27T23:40:01.912Z,2.22
2023-07-27T23:42:29.304Z,1.80
2023-07-27T23:44:56.465Z,1.75
2023-07-27T23:47:23.435Z,2.15
2023-07-27T23:49:50.651Z,2.63
2023-07-27T23:52:17.595Z,2.45
2023-07-27T23:54:44.555Z,2.28
2023-07-27T23:57:11.600Z,1.83
2023-07-27T23:59:38.490Z,2.15
